createdAt,value
2017-12-12T00:00:51.396Z,91.50
2017-12-12T00:03:20.323Z,91.60
2017-12-12T00:05:48.486Z,91.50
2017-12-12T00:08:16.646Z,91.60
2017-12-12T00:10:44.809Z,91.60
2017-12-12T00:13:13.734Z,91.60
2017-12-12T00:15:41.897Z,91.50
2017-12-12T00:18:10.059Z,91.60
2017-12-12T00:20:38.271Z,91.60
2017-12-12T00:23:06.435Z,91.60
2017-12-12T00:25:34.610Z,91.60
2017-12-12T00:28:02.775Z,91.50
2017-12-12T00:30:30.944Z,91.40
2017-12-12T00:32:59.140Z,91.20
2017-12-12T00:35:27.306Z,91.10
2017-12-12T00:37:55.497Z,91.10
2017-12-12T00:40:23.666Z,91.20
2017-12-12T00:42:51.830Z,91.40
2017-12-12T00:45:19.984Z,91.50
2017-12-12T00:47:48.146Z,91.50
2017-12-12T00:50:16.317Z,91.50
2017-12-12T00:52:45.247Z,91.60
2017-12-12T00:55:13.410Z,91.60
2017-12-12T00:57:41.569Z,91.60
2017-12-12T01:00:09.731Z,91.80
2017-12-12T01:02:38.649Z,91.90
2017-12-12T01:05:06.820Z,91.90
2017-12-12T01:07:35.010Z,92.00
2017-12-12T01:10:03.197Z,92.10
2017-12-12T01:12:31.358Z,92.10
2017-12-12T01:14:59.517Z,92.10
2017-12-12T01:17:27.711Z,92.10
2017-12-12T01:19:55.906Z,92.40
2017-12-12T01:22:24.078Z,92.40
2017-12-12T01:24:52.243Z,92.50
2017-12-12T01:27:20.450Z,92.50
2017-12-12T01:29:49.379Z,92.60
2017-12-12T01:32:17.542Z,92.60
2017-12-12T01:34:45.713Z,92.70
2017-12-12T01:37:14.639Z,92.80
2017-12-12T01:39:42.806Z,92.70
2017-12-12T01:42:10.978Z,92.80
2017-12-12T01:44:39.146Z,92.80
2017-12-12T01:47:07.305Z,92.70
2017-12-12T01:49:35.476Z,92.80
2017-12-12T01:52:04.436Z,93.10
2017-12-12T01:54:32.618Z,92.80
2017-12-12T01:57:00.784Z,92.80
2017-12-12T01:59:28.946Z,92.80
2017-12-12T02:01:57.124Z,92.90
2017-12-12T02:04:25.293Z,93.00
2017-12-12T02:06:53.496Z,93.20
2017-12-12T02:09:22.454Z,93.10
2017-12-12T02:11:50.623Z,93.00
2017-12-12T02:14:18.788Z,92.80
2017-12-12T02:16:47.045Z,93.00
2017-12-12T02:19:15.213Z,93.10
2017-12-12T02:21:43.378Z,93.10
2017-12-12T02:24:12.309Z,93.10
2017-12-12T02:26:40.472Z,93.10
2017-12-12T02:29:08.643Z,93.30
2017-12-12T02:31:36.795Z,93.20
2017-12-12T02:34:04.978Z,93.30
2017-12-12T02:36:33.166Z,93.30
2017-12-12T02:39:01.372Z,93.30
2017-12-12T02:41:29.534Z,93.30
2017-12-12T02:43:57.698Z,93.30
2017-12-12T02:46:25.863Z,93.40
2017-12-12T02:48:54.043Z,93.40
2017-12-12T02:51:22.202Z,93.40
2017-12-12T02:53:50.370Z,93.60
2017-12-12T02:56:18.532Z,93.70
2017-12-12T02:58:47.491Z,93.80
2017-12-12T03:01:15.655Z,93.80
2017-12-12T03:03:43.834Z,93.70
2017-12-12T03:06:12.040Z,93.70
2017-12-12T03:08:40.985Z,93.70
2017-12-12T03:11:09.152Z,93.60
2017-12-12T03:13:37.343Z,93.70
2017-12-12T03:16:05.511Z,93.90
2017-12-12T03:18:33.698Z,93.90
2017-12-12T03:21:01.897Z,93.70
2017-12-12T03:23:30.063Z,93.80
2017-12-12T03:25:58.217Z,93.80
2017-12-12T03:28:26.406Z,93.70
2017-12-12T03:30:54.576Z,93.60
2017-12-12T03:33:22.743Z,93.70
2017-12-12T03:35:50.909Z,93.70
2017-12-12T03:38:19.079Z,93.80
2017-12-12T03:40:47.243Z,93.60
2017-12-12T03:43:15.434Z,93.70
2017-12-12T03:45:44.010Z,93.60
2017-12-12T03:48:12.176Z,93.70
2017-12-12T03:50:40.337Z,93.50
2017-12-12T03:53:08.494Z,93.60
2017-12-12T03:55:37.446Z,93.40
2017-12-12T03:58:05.610Z,93.40
2017-12-12T04:00:33.765Z,93.30
2017-12-12T04:03:01.923Z,93.40
2017-12-12T04:05:30.086Z,93.40
2017-12-12T04:07:59.020Z,93.50
2017-12-12T04:10:27.200Z,93.40
2017-12-12T04:12:55.357Z,93.50
2017-12-12T04:15:23.518Z,93.50
2017-12-12T04:17:51.715Z,93.60
2017-12-12T04:20:19.899Z,93.70
2017-12-12T04:22:48.838Z,93.60
2017-12-12T04:25:17.762Z,93.80
2017-12-12T04:27:45.954Z,93.70
2017-12-12T04:30:14.911Z,93.80
2017-12-12T04:32:43.081Z,93.70
2017-12-12T04:35:12.006Z,93.70
2017-12-12T04:37:40.168Z,93.70
2017-12-12T04:40:08.330Z,93.90
2017-12-12T04:42:36.506Z,93.90
2017-12-12T04:45:04.694Z,94.00
2017-12-12T04:47:32.855Z,93.90
2017-12-12T04:50:01.023Z,93.70
2017-12-12T04:52:29.221Z,93.70
2017-12-12T04:54:57.389Z,93.70
2017-12-12T04:57:25.562Z,93.70
2017-12-12T04:59:53.736Z,93.60
2017-12-12T05:02:21.897Z,93.80
2017-12-12T05:04:50.090Z,93.80
2017-12-12T05:07:18.261Z,93.90
2017-12-12T05:09:46.418Z,93.80
2017-12-12T05:12:14.603Z,93.90
2017-12-12T05:14:42.766Z,93.90
2017-12-12T05:17:10.934Z,93.90
2017-12-12T05:19:39.879Z,94.00
2017-12-12T05:22:08.035Z,93.90
2017-12-12T05:24:36.202Z,94.00
2017-12-12T05:27:04.358Z,93.80
2017-12-12T05:29:32.527Z,93.80
2017-12-12T05:32:00.702Z,93.70
2017-12-12T05:34:28.883Z,93.80
2017-12-12T05:36:57.048Z,94.00
2017-12-12T05:39:25.214Z,93.80
2017-12-12T05:41:54.143Z,93.80
2017-12-12T05:44:22.290Z,93.70
2017-12-12T05:46:50.503Z,93.70
2017-12-12T05:49:18.703Z,93.80
2017-12-12T05:51:46.861Z,93.80
2017-12-12T05:54:15.063Z,93.80
2017-12-12T05:56:44.007Z,93.60
2017-12-12T05:59:12.166Z,93.50
2017-12-12T06:01:40.326Z,93.50
2017-12-12T06:04:09.248Z,93.50
2017-12-12T06:06:37.407Z,93.50
2017-12-12T06:09:05.565Z,93.30
2017-12-12T06:11:34.490Z,93.20
2017-12-12T06:14:02.675Z,93.20
2017-12-12T06:16:30.839Z,93.20
2017-12-12T06:18:59.059Z,93.10
2017-12-12T06:21:27.250Z,93.10
2017-12-12T06:23:56.190Z,93.00
2017-12-12T06:26:24.355Z,93.00
2017-12-12T06:28:52.515Z,93.10
2017-12-12T06:31:20.679Z,93.10
2017-12-12T06:33:48.901Z,93.10
2017-12-12T06:36:17.548Z,93.10
2017-12-12T06:38:45.725Z,93.00
2017-12-12T06:41:13.907Z,92.80
2017-12-12T06:43:42.190Z,92.80
2017-12-12T06:46:10.415Z,92.80
2017-12-12T06:48:39.372Z,92.80
2017-12-12T06:51:07.600Z,92.80
2017-12-12T06:53:36.539Z,92.60
2017-12-12T06:56:04.742Z,92.60
2017-12-12T06:58:32.925Z,92.50
2017-12-12T07:01:01.135Z,92.50
2017-12-12T07:03:29.349Z,92.50
2017-12-12T07:05:58.300Z,92.20
2017-12-12T07:08:26.513Z,92.50
2017-12-12T07:10:54.721Z,92.30
2017-12-12T07:13:22.924Z,92.60
2017-12-12T07:15:51.099Z,92.20
2017-12-12T07:18:19.274Z,92.40
2017-12-12T07:20:47.450Z,91.80
2017-12-12T07:23:15.605Z,91.40
2017-12-12T07:25:44.586Z,90.00
2017-12-12T07:28:12.816Z,89.90
2017-12-12T07:30:41.013Z,87.80
2017-12-12T07:33:09.170Z,86.10
2017-12-12T07:35:37.332Z,83.30
2017-12-12T07:38:05.515Z,80.80
2017-12-12T07:40:33.754Z,79.80
2017-12-12T07:43:02.694Z,76.10
2017-12-12T07:45:30.866Z,76.10
2017-12-12T07:47:59.043Z,75.50
2017-12-12T07:50:27.217Z,73.00
2017-12-12T07:52:55.462Z,71.10
2017-12-12T07:55:23.629Z,70.20
2017-12-12T07:57:52.576Z,68.50
2017-12-12T08:00:20.773Z,68.40
2017-12-12T08:02:49.735Z,67.90
2017-12-12T08:05:17.922Z,67.10
2017-12-12T08:07:46.111Z,65.20
2017-12-12T08:10:14.292Z,64.40
2017-12-12T08:12:43.244Z,62.00
2017-12-12T08:15:12.572Z,61.90
2017-12-12T08:17:40.754Z,61.10
2017-12-12T08:20:08.952Z,60.40
2017-12-12T08:22:37.891Z,61.30
2017-12-12T08:25:06.067Z,61.20
2017-12-12T08:27:34.229Z,61.40
2017-12-12T08:30:02.396Z,61.60
2017-12-12T08:32:30.612Z,62.50
2017-12-12T08:34:58.792Z,62.30
2017-12-12T08:37:26.959Z,63.00
2017-12-12T08:39:55.135Z,63.50
2017-12-12T08:42:23.351Z,63.10
2017-12-12T08:44:51.520Z,63.20
2017-12-12T08:47:20.451Z,64.00
2017-12-12T08:49:48.625Z,64.00
2017-12-12T08:52:16.785Z,64.30
2017-12-12T08:54:44.961Z,64.40
2017-12-12T08:57:13.135Z,64.40
2017-12-12T08:59:41.319Z,64.10
2017-12-12T09:02:09.494Z,63.90
2017-12-12T09:04:37.657Z,63.20
2017-12-12T09:07:05.843Z,62.30
2017-12-12T09:09:34.048Z,60.90
2017-12-12T09:12:02.254Z,60.20
2017-12-12T09:14:31.230Z,60.60
2017-12-12T09:16:59.434Z,60.50
2017-12-12T09:19:27.602Z,59.40
2017-12-12T09:21:55.766Z,59.80
2017-12-12T09:24:24.706Z,59.50
2017-12-12T09:26:52.866Z,59.40
2017-12-12T09:29:21.046Z,58.80
2017-12-12T09:31:49.242Z,57.90
2017-12-12T09:34:17.411Z,57.40
2017-12-12T09:36:45.586Z,56.90
2017-12-12T09:39:14.522Z,56.60
2017-12-12T09:41:43.469Z,56.80
2017-12-12T09:44:11.641Z,56.70
2017-12-12T09:46:39.825Z,56.70
2017-12-12T09:49:07.986Z,56.80
2017-12-12T09:51:36.154Z,56.60
2017-12-12T09:54:04.338Z,56.60
2017-12-12T09:56:32.506Z,56.80
2017-12-12T09:59:00.674Z,56.40
2017-12-12T10:01:28.893Z,56.00
2017-12-12T10:03:57.062Z,55.80
2017-12-12T10:06:25.228Z,55.20
2017-12-12T10:08:53.434Z,55.40
2017-12-12T10:11:22.367Z,55.70
2017-12-12T10:13:50.540Z,55.70
2017-12-12T10:16:18.705Z,56.10
2017-12-12T10:18:46.881Z,56.00
2017-12-12T10:21:15.044Z,56.20
2017-12-12T10:23:43.213Z,57.10
2017-12-12T10:26:12.146Z,58.20
2017-12-12T10:28:40.316Z,58.10
2017-12-12T10:31:08.486Z,58.10
2017-12-12T10:33:36.666Z,57.20
2017-12-12T10:36:04.834Z,55.90
2017-12-12T10:38:33.001Z,54.60
2017-12-12T10:41:01.207Z,53.00
2017-12-12T10:43:29.492Z,53.00
2017-12-12T10:45:57.703Z,54.00
2017-12-12T10:48:26.635Z,55.60
2017-12-12T10:50:54.807Z,55.50
2017-12-12T10:53:22.973Z,56.10
2017-12-12T10:55:51.142Z,56.80
2017-12-12T10:58:19.339Z,57.40
2017-12-12T11:00:47.497Z,57.00
2017-12-12T11:03:15.666Z,56.60
2017-12-12T11:05:43.827Z,55.90
2017-12-12T11:08:11.988Z,56.30
2017-12-12T11:10:40.949Z,55.70
2017-12-12T11:13:09.105Z,55.70
2017-12-12T11:15:37.274Z,56.10
2017-12-12T11:18:05.438Z,57.20
2017-12-12T11:20:33.608Z,57.00
2017-12-12T11:23:01.767Z,57.20
2017-12-12T11:25:29.953Z,57.70
2017-12-12T11:27:58.129Z,58.30
2017-12-12T11:30:26.380Z,58.40
2017-12-12T11:32:54.575Z,59.20
2017-12-12T11:35:22.790Z,59.80
2017-12-12T11:37:50.949Z,59.70
2017-12-12T11:40:19.150Z,59.70
2017-12-12T11:42:47.310Z,60.80
2017-12-12T11:45:15.527Z,61.20
2017-12-12T11:47:43.729Z,60.90
2017-12-12T11:50:11.890Z,61.30
2017-12-12T11:52:40.063Z,61.50
2017-12-12T11:55:08.248Z,60.50
2017-12-12T11:57:36.410Z,60.50
2017-12-12T12:00:04.666Z,59.30
2017-12-12T12:02:33.611Z,58.20
2017-12-12T12:05:01.798Z,58.20
2017-12-12T12:07:29.959Z,57.90
2017-12-12T12:09:58.168Z,57.80
2017-12-12T12:12:26.394Z,57.70
2017-12-12T12:14:54.553Z,58.00
2017-12-12T12:17:22.722Z,58.50
2017-12-12T12:19:50.887Z,58.30
2017-12-12T12:22:19.851Z,57.90
2017-12-12T12:24:48.059Z,57.80
2017-12-12T12:27:17.026Z,58.00
2017-12-12T12:29:45.202Z,58.00
2017-12-12T12:32:13.368Z,57.40
2017-12-12T12:34:41.846Z,57.80
2017-12-12T12:37:10.014Z,59.40
2017-12-12T12:39:38.179Z,62.10
2017-12-12T12:42:06.355Z,64.10
2017-12-12T12:44:34.523Z,66.00
2017-12-12T12:47:02.689Z,67.30
2017-12-12T12:49:30.870Z,68.80
2017-12-12T12:51:59.031Z,69.90
2017-12-12T12:54:27.192Z,70.70
2017-12-12T12:56:55.359Z,71.40
2017-12-12T12:59:23.525Z,72.20
2017-12-12T13:01:52.468Z,73.50
2017-12-12T13:04:20.658Z,73.40
2017-12-12T13:06:48.842Z,73.80
2017-12-12T13:09:17.007Z,73.90
2017-12-12T13:11:45.177Z,74.60
2017-12-12T13:14:13.356Z,74.80
2017-12-12T13:16:41.552Z,75.00
2017-12-12T13:19:10.482Z,76.00
2017-12-12T13:21:38.648Z,75.90
2017-12-12T13:24:06.806Z,76.60
2017-12-12T13:26:35.733Z,77.60
2017-12-12T13:29:03.955Z,77.50
2017-12-12T13:31:32.922Z,78.30
2017-12-12T13:34:01.083Z,78.90
2017-12-12T13:36:29.279Z,78.70
2017-12-12T13:38:58.241Z,80.40
2017-12-12T13:41:26.418Z,79.60
2017-12-12T13:43:54.583Z,80.00
2017-12-12T13:46:22.753Z,80.40
2017-12-12T13:48:50.929Z,80.80
2017-12-12T13:51:19.095Z,81.10
2017-12-12T13:53:47.275Z,81.40
2017-12-12T13:56:15.479Z,81.80
2017-12-12T13:58:43.706Z,81.90
2017-12-12T14:01:12.639Z,82.20
2017-12-12T14:03:40.838Z,82.20
2017-12-12T14:06:09.014Z,82.40
2017-12-12T14:08:37.171Z,82.50
2017-12-12T14:11:05.399Z,82.50
2017-12-12T14:13:34.333Z,83.90
2017-12-12T14:16:02.508Z,83.80
2017-12-12T14:18:30.690Z,82.80
2017-12-12T14:20:58.886Z,83.80
2017-12-12T14:23:27.057Z,84.20
2017-12-12T14:25:55.234Z,84.50
2017-12-12T14:28:23.389Z,84.60
2017-12-12T14:30:51.551Z,84.70
2017-12-12T14:33:19.711Z,84.90
2017-12-12T14:35:47.880Z,85.30
2017-12-12T14:38:16.036Z,85.40
2017-12-12T14:40:44.969Z,85.60
2017-12-12T14:43:13.888Z,85.90
2017-12-12T14:45:42.092Z,85.90
2017-12-12T14:48:11.019Z,86.10
2017-12-12T14:50:39.181Z,86.00
2017-12-12T14:53:07.378Z,86.30
2017-12-12T14:55:35.576Z,86.30
2017-12-12T14:58:03.734Z,86.20
2017-12-12T15:00:31.911Z,86.30
2017-12-12T15:03:00.127Z,86.10
2017-12-12T15:05:29.071Z,86.20
2017-12-12T15:07:57.243Z,86.10
2017-12-12T15:10:25.410Z,86.30
2017-12-12T15:12:53.614Z,86.40
2017-12-12T15:15:21.815Z,86.40
2017-12-12T15:17:50.790Z,86.20
2017-12-12T15:20:18.966Z,86.20
2017-12-12T15:22:47.147Z,85.40
2017-12-12T15:25:15.299Z,85.20
2017-12-12T15:27:43.457Z,84.50
2017-12-12T15:30:11.628Z,83.80
2017-12-12T15:32:39.824Z,83.70
2017-12-12T15:35:08.024Z,83.20
2017-12-12T15:37:36.992Z,83.00
2017-12-12T15:40:05.185Z,82.90
2017-12-12T15:42:33.386Z,83.00
2017-12-12T15:45:01.544Z,83.70
2017-12-12T15:47:30.486Z,82.90
2017-12-12T15:49:58.645Z,82.80
2017-12-12T15:52:26.843Z,82.90
2017-12-12T15:54:55.000Z,82.60
2017-12-12T15:57:23.182Z,82.90
2017-12-12T15:59:51.367Z,83.20
2017-12-12T16:02:19.549Z,83.00
2017-12-12T16:04:47.755Z,83.10
2017-12-12T16:07:16.704Z,83.50
2017-12-12T16:09:44.870Z,83.50
2017-12-12T16:12:13.058Z,83.70
2017-12-12T16:14:41.222Z,83.80
2017-12-12T16:17:09.409Z,83.70
2017-12-12T16:19:37.632Z,83.50
2017-12-12T16:22:05.847Z,83.30
2017-12-12T16:24:34.046Z,83.70
2017-12-12T16:27:02.217Z,83.20
2017-12-12T16:29:30.432Z,83.20
2017-12-12T16:31:59.460Z,83.10
2017-12-12T16:34:27.625Z,83.30
2017-12-12T16:36:55.778Z,83.90
2017-12-12T16:39:24.735Z,83.00
2017-12-12T16:41:52.909Z,83.00
2017-12-12T16:44:21.146Z,82.90
2017-12-12T16:46:49.311Z,82.90
2017-12-12T16:49:17.478Z,83.30
2017-12-12T16:51:45.676Z,82.90
2017-12-12T16:54:13.854Z,82.80
2017-12-12T16:56:42.030Z,81.90
2017-12-12T16:59:10.204Z,81.40
2017-12-12T17:01:38.385Z,81.60
2017-12-12T17:04:06.552Z,81.60
2017-12-12T17:06:34.751Z,81.40
2017-12-12T17:09:02.912Z,81.50
2017-12-12T17:11:31.106Z,81.80
2017-12-12T17:13:59.298Z,81.70
2017-12-12T17:16:27.471Z,81.40
2017-12-12T17:18:55.643Z,82.00
2017-12-12T17:21:23.803Z,81.50
2017-12-12T17:23:51.979Z,81.90
2017-12-12T17:26:20.151Z,81.20
2017-12-12T17:28:48.336Z,81.00
2017-12-12T17:31:16.532Z,81.20
2017-12-12T17:33:45.502Z,81.30
2017-12-12T17:36:13.738Z,81.20
2017-12-12T17:38:41.915Z,81.40
2017-12-12T17:41:10.078Z,81.50
2017-12-12T17:43:38.323Z,81.60
2017-12-12T17:46:07.309Z,81.70
2017-12-12T17:48:36.266Z,81.90
2017-12-12T17:51:04.439Z,81.80
2017-12-12T17:53:32.635Z,82.70
2017-12-12T17:56:00.804Z,82.00
2017-12-12T17:58:29.004Z,82.00
2017-12-12T18:00:58.007Z,81.90
2017-12-12T18:03:27.021Z,82.10
2017-12-12T18:05:55.234Z,82.10
2017-12-12T18:08:23.384Z,82.00
2017-12-12T18:10:51.562Z,82.20
2017-12-12T18:13:19.736Z,82.50
2017-12-12T18:15:47.969Z,81.60
2017-12-12T18:18:16.923Z,81.80
2017-12-12T18:20:45.109Z,81.80
2017-12-12T18:23:13.279Z,81.90
2017-12-12T18:25:41.438Z,81.90
2017-12-12T18:28:09.606Z,81.10
2017-12-12T18:30:37.800Z,81.40
2017-12-12T18:33:05.980Z,81.40
2017-12-12T18:35:34.142Z,81.50
2017-12-12T18:38:02.320Z,81.40
2017-12-12T18:40:30.483Z,81.30
2017-12-12T18:42:58.664Z,81.00
2017-12-12T18:45:26.851Z,80.90
2017-12-12T18:47:55.050Z,81.50
2017-12-12T18:50:24.012Z,82.20
2017-12-12T18:52:52.200Z,82.10
2017-12-12T18:55:20.406Z,82.10
2017-12-12T18:57:49.391Z,82.80
2017-12-12T19:00:18.469Z,83.50
2017-12-12T19:02:46.876Z,82.70
2017-12-12T19:05:16.076Z,85.40
2017-12-12T19:07:44.471Z,85.20
2017-12-12T19:10:13.035Z,84.40
2017-12-12T19:12:42.391Z,84.00
2017-12-12T19:15:10.994Z,83.90
2017-12-12T19:17:39.620Z,84.40
2017-12-12T19:20:08.034Z,84.60
2017-12-12T19:22:36.406Z,85.20
2017-12-12T20:47:02.522Z,85.70
2017-12-12T20:49:30.741Z,84.20
2017-12-12T20:51:59.759Z,83.60
2017-12-12T20:54:28.042Z,83.50
2017-12-12T20:56:56.510Z,83.30
2017-12-12T20:59:24.823Z,83.00
2017-12-12T21:01:53.152Z,82.20
2017-12-12T21:04:21.520Z,80.80
2017-12-12T21:06:50.596Z,79.90
2017-12-12T21:09:18.879Z,79.80
2017-12-12T21:11:47.154Z,78.90
2017-12-12T21:14:15.430Z,79.80
2017-12-12T21:16:43.634Z,80.80
2017-12-12T21:19:11.853Z,81.80
2017-12-12T21:21:40.144Z,81.60
2017-12-12T21:24:08.374Z,81.10
2017-12-12T21:26:36.597Z,79.90
2017-12-12T21:29:04.878Z,80.50
2017-12-12T21:31:33.052Z,80.40
2017-12-12T21:34:01.284Z,83.70
2017-12-12T21:36:29.484Z,81.30
2017-12-12T21:38:57.795Z,80.50
2017-12-12T21:41:26.774Z,82.50
2017-12-12T21:43:54.977Z,82.40
2017-12-12T21:46:23.989Z,80.00
2017-12-12T21:48:52.171Z,79.90
2017-12-12T21:51:20.351Z,79.10
2017-12-12T21:53:48.524Z,79.60
2017-12-12T21:56:16.702Z,81.50
2017-12-12T21:58:44.883Z,80.80
2017-12-12T22:01:13.054Z,79.50
2017-12-12T22:03:41.212Z,80.10
2017-12-12T22:06:09.407Z,81.30
2017-12-12T22:08:37.576Z,81.30
2017-12-12T22:11:05.757Z,81.80
2017-12-12T22:13:33.927Z,81.10
2017-12-12T22:16:02.097Z,82.00
2017-12-12T22:18:30.273Z,82.70
2017-12-12T22:20:58.442Z,83.40
2017-12-12T22:23:26.650Z,83.50
2017-12-12T22:25:54.814Z,83.40
2017-12-12T22:28:22.995Z,83.70
2017-12-12T22:30:51.164Z,85.40
2017-12-12T22:33:19.329Z,84.70
2017-12-12T22:35:47.493Z,84.40
2017-12-12T22:38:15.673Z,83.00
2017-12-12T22:40:43.879Z,83.00
2017-12-12T22:43:12.039Z,85.10
2017-12-12T22:45:40.208Z,85.40
2017-12-12T22:48:08.405Z,85.40
2017-12-12T22:50:36.583Z,84.40
2017-12-12T22:53:04.757Z,82.70
2017-12-12T22:55:32.927Z,82.80
2017-12-12T22:58:01.109Z,84.20
2017-12-12T23:00:29.302Z,84.30
2017-12-12T23:02:58.231Z,84.20
2017-12-12T23:05:26.477Z,84.10
2017-12-12T23:07:55.434Z,83.30
2017-12-12T23:10:23.592Z,83.10
2017-12-12T23:12:51.774Z,84.00
2017-12-12T23:15:19.938Z,84.40
2017-12-12T23:17:48.101Z,82.40
2017-12-12T23:20:16.269Z,83.50
2017-12-12T23:22:44.450Z,84.20
2017-12-12T23:25:12.617Z,84.50
2017-12-12T23:27:40.779Z,83.90
2017-12-12T23:30:08.948Z,84.20
2017-12-12T23:32:37.146Z,83.70
2017-12-12T23:35:05.304Z,83.20
2017-12-12T23:37:33.484Z,83.90
2017-12-12T23:40:01.643Z,83.50
2017-12-12T23:42:29.806Z,81.00
2017-12-12T23:44:58.724Z,80.60
2017-12-12T23:47:26.880Z,80.60
2017-12-12T23:49:55.062Z,81.50
2017-12-12T23:52:23.223Z,80.40
2017-12-12T23:54:59.002Z,81.40
2017-12-12T23:57:27.162Z,81.30
2017-12-12T23:59:55.331Z,80.90
